DAOC weather

Ouakda Airport
Béchar, Béchar Province, Algeria

Public forecast

Using degrees Celsius for public forecast. Weather courtesy of forecast.io.

Closest aviation weather report (METAR) to Ouakda Airport

Closest report is Béchar Boudghene Ben Ali Lotfi Airport, 4.4 nm (8.1 km) W. Retrieved 2019/11/18 10:00 UTC (54 minutes ago):

DAOR 181000Z 00000KT CAVOK 13/M13 Q1019

Closest aviation forecast (TAF) to Ouakda Airport

Forecast is more than 12 hours old.

Closest forecast is Béchar Boudghene Ben Ali Lotfi Airport, 4.4 nm (8.1 km) W. Retrieved 2017/11/09 18:03 UTC (2 years ago):

TAF DAOR 091700Z 0918/1009 35010KT 6000 FEW033 SCT100 TEMPO 0918/0924 3000 BLSA PROB40 TEMPO 0918/0924 35020G35KT 2000 -TSRA FEW030CB